Aberdeen, Idaho
Current Conditions -  °F | °C
As of 4:53 PM on Friday 31 Oct 2014 (Local Time) from KPIH Reporting Station
Clear Clear  
Wind Chill: 67°   Ceiling: Unl
Heat Index: 67°   Visibility: 10mi
Dew Point: 27°   Wind: 18mph
Humidity: 22%   Direction: 190°S
Pressure: 29.85"   Gusts: 26mph
Location:  42.94°N, 112.84°W
Report Text: KPIH 312253Z 19016G23KT 10SM CLR 19/M03 A2985 RMK AO2 SLP088 T01941028
Loading
Personal Weather Stations






























Interactive Weather Map
Tropical Storm Tracking
New forecast layout! Learn more

10-Day Weather Forecast

Advertisements
Track Severe Weather on mobile